Terminal Aerodrome Forecast
Issued by NWS

Home | Current Version | Previous Version | Text Only | Print | Product List | Glossary On
Versions: 1 2 3 4 5 6 7 8 9 10 11 12 13 14 15 16 17 18 19 20 21 22 23 24 25 26
000
FTUS45 KREV 192300
TAFTRK
TAF
KTRK 192340Z 2000/2024 VRB04KT 5SM -SHSN FEW020 OVC030
      TEMPO 2002/2004 2SM -SHSN BKN020
     FM200600 VRB03KT P6SM SCT025 BKN040
     FM201600 20005KT 5SM -SN SCT012 BKN020
     FM202000 22008KT P6SM -SHRA SCT028 BKN035
      AMD NOT SKED 2002/2012=

USA.gov is the U.S. government's official web portal to all federal, state and local government web resources and services.